WIOO

Supadio International Airport

Airport
ICAO code
WIOO
IATA Code
PNK
Summary
ICAO Region
APAC
ICAO Territory
Location

Limbung, West Kalimantan

Serving
Ponianak
Elevation
10 ft
Coordinates
0° 9' 2" S , 109° 24' 14" E
KCC
Af
Metar
Observation
WIOO 152100Z AUTO 26002KT 7000 SCT048 SCT170 25/25 Q1010
Station
Pontianak / Supadio
Date/Time
2022-08-15 21:00:00
Wind direction
260°
Wind speed
02 kts
Lowest cloud amount
scattered clouds
Temperature
25°C
Dew point
25°C
Humidity
100%
QNH
1010 hPa
Weather condition
n/a

Supadio International Airport, formerly known as Sei Durian Airport or Sungai Durian Airport, is an international airport located 17 km from Pontianak, West Kalimantan, Indonesia.

Climatology

Tropical Rainforest climate (Köppen climate classification Af)

Airport map

Aerial View

SKYbrary Partners:

Safety knowledge contributed by: